Time;durP1;ratioP1;P1;durP2;ratioP2;P2;SDS_P1;SDS_P2;PMS_P1;PMS_P2;Temp;Humidity;BMP_temperature;BMP_pressure;BME280_temperature;BME280_humidity;BME280_pressure;Samples;Min_cycle;Max_cycle;Signal;HPM_P1;HPM_P2
2023/05/06 00:02:05;;;;;;;10.45;4.00;;;13.10;88.40;;;;;;5024372;28;20083;-72
2023/05/06 00:04:31;;;;;;;7.97;4.68;;;13.20;88.70;;;;;;5030624;28;20030;-73
2023/05/06 00:06:56;;;;;;;8.30;4.55;;;13.10;89.00;;;;;;5019413;28;20037;-73
2023/05/06 00:09:25;;;;;;;9.05;4.35;;;13.00;89.70;;;;;;5015541;28;20026;-73
2023/05/06 00:11:51;;;;;;;6.95;4.20;;;13.00;90.00;;;;;;5021893;28;20480;-73
2023/05/06 00:14:16;;;;;;;6.03;4.40;;;12.90;90.20;;;;;;5031399;28;20079;-73
2023/05/06 00:16:42;;;;;;;7.63;4.85;;;12.90;90.40;;;;;;5027140;28;20068;-73
2023/05/06 00:19:08;;;;;;;8.30;4.47;;;12.80;90.60;;;;;;5030742;28;20397;-73
2023/05/06 00:21:33;;;;;;;7.78;4.70;;;12.80;90.80;;;;;;5019889;28;20029;-73
2023/05/06 00:23:59;;;;;;;12.10;5.38;;;12.80;91.00;;;;;;5030115;28;20497;-73
2023/05/06 00:26:24;;;;;;;10.00;5.00;;;12.80;91.20;;;;;;5018981;28;20033;-74
2023/05/06 00:28:50;;;;;;;8.45;4.93;;;12.70;91.40;;;;;;5019759;28;20025;-74
2023/05/06 00:31:16;;;;;;;9.43;5.55;;;12.70;91.60;;;;;;5025233;28;20477;-74
2023/05/06 00:33:43;;;;;;;8.88;4.80;;;12.70;91.80;;;;;;5029289;28;20124;-74
2023/05/06 00:36:08;;;;;;;8.27;4.63;;;12.70;92.00;;;;;;5023798;28;20109;-74
2023/05/06 00:38:34;;;;;;;10.88;5.05;;;12.70;92.10;;;;;;5024592;28;20050;-75
2023/05/06 00:41:00;;;;;;;7.25;4.35;;;12.60;92.20;;;;;;5017683;28;20026;-74
2023/05/06 00:43:26;;;;;;;8.38;5.03;;;12.60;92.30;;;;;;5032964;28;20112;-74
2023/05/06 00:45:51;;;;;;;9.00;5.63;;;12.60;92.40;;;;;;5033028;28;20075;-74
2023/05/06 00:48:17;;;;;;;10.32;4.75;;;12.50;92.60;;;;;;5017877;28;20105;-74
2023/05/06 00:50:44;;;;;;;6.40;3.92;;;12.50;92.80;;;;;;5023649;28;20478;-74
2023/05/06 00:53:10;;;;;;;10.32;5.97;;;12.40;92.90;;;;;;5027161;28;20148;-73
2023/05/06 00:55:37;;;;;;;8.30;5.15;;;12.40;93.10;;;;;;5019742;28;20465;-73
2023/05/06 00:58:03;;;;;;;7.45;4.90;;;12.30;93.40;;;;;;5021934;28;20056;-73
2023/05/06 01:00:29;;;;;;;8.13;4.90;;;12.20;93.50;;;;;;5017321;28;20091;-73
2023/05/06 01:02:55;;;;;;;7.32;5.03;;;12.20;93.80;;;;;;5026864;28;20022;-73
2023/05/06 01:05:22;;;;;;;8.70;5.43;;;12.10;93.90;;;;;;5014992;28;20497;-74
2023/05/06 01:07:57;;;;;;;10.40;5.15;;;12.00;94.20;;;;;;5014251;28;20034;-73
2023/05/06 01:10:30;;;;;;;8.15;5.05;;;12.00;94.40;;;;;;5027622;28;20380;-73
2023/05/06 01:13:20;;;;;;;8.43;4.97;;;11.90;94.60;;;;;;5024235;28;20087;-74
2023/05/06 01:15:48;;;;;;;7.43;4.88;;;12.00;94.80;;;;;;5033537;28;20113;-74
2023/05/06 01:18:24;;;;;;;8.02;5.07;;;12.00;94.80;;;;;;5022068;28;20127;-73
2023/05/06 01:20:51;;;;;;;8.55;5.22;;;11.90;95.10;;;;;;5027971;28;20022;-73
2023/05/06 01:23:18;;;;;;;7.15;5.72;;;11.90;95.20;;;;;;5019726;28;20062;-73
2023/05/06 01:25:43;;;;;;;10.55;6.50;;;11.80;95.30;;;;;;5017871;28;20466;-73
2023/05/06 01:28:10;;;;;;;10.95;4.93;;;11.80;95.50;;;;;;5030739;28;20103;-73
2023/05/06 01:30:51;;;;;;;8.43;5.03;;;11.70;95.60;;;;;;5015672;28;20026;-73
2023/05/06 01:33:43;;;;;;;8.10;4.82;;;11.70;95.90;;;;;;5017810;28;20041;-73
2023/05/06 01:36:21;;;;;;;6.18;4.38;;;11.60;95.90;;;;;;5009014;28;20061;-73
2023/05/06 01:38:53;;;;;;;6.32;4.80;;;11.60;96.20;;;;;;5029141;28;20057;-73
2023/05/06 01:41:21;;;;;;;7.80;5.60;;;11.50;96.20;;;;;;5016133;28;21419;-74
2023/05/06 01:43:47;;;;;;;8.20;4.72;;;11.50;96.50;;;;;;5017878;28;20033;-74
2023/05/06 01:46:19;;;;;;;8.95;5.13;;;11.50;96.60;;;;;;5027831;28;20136;-74
2023/05/06 01:48:46;;;;;;;12.02;5.47;;;11.50;96.80;;;;;;5025126;28;20485;-74
2023/05/06 01:51:11;;;;;;;8.07;5.00;;;11.40;96.80;;;;;;5039405;28;20051;-74
2023/05/06 01:53:37;;;;;;;7.60;5.32;;;11.40;96.90;;;;;;5024497;28;20145;-74
2023/05/06 01:56:03;;;;;;;9.50;5.00;;;11.40;97.00;;;;;;5020245;28;20033;-72
2023/05/06 01:58:29;;;;;;;7.97;5.38;;;11.30;97.10;;;;;;5018661;28;20448;-72
2023/05/06 02:00:54;;;;;;;9.48;5.90;;;11.20;97.20;;;;;;5022562;28;20104;-75
2023/05/06 02:03:20;;;;;;;7.82;5.50;;;11.20;97.30;;;;;;5018008;28;20021;-73
2023/05/06 02:05:46;;;;;;;10.35;5.57;;;11.20;97.50;;;;;;5013332;28;20044;-73
2023/05/06 02:08:11;;;;;;;6.90;5.35;;;11.10;97.60;;;;;;5014418;28;20057;-73
2023/05/06 02:10:37;;;;;;;11.23;5.82;;;11.10;97.80;;;;;;5026183;28;20045;-72
2023/05/06 02:13:03;;;;;;;7.95;5.45;;;11.10;98.00;;;;;;5021637;28;20401;-72
2023/05/06 02:15:29;;;;;;;7.53;5.50;;;11.00;98.10;;;;;;5013249;28;20045;-73
2023/05/06 02:17:56;;;;;;;10.07;5.43;;;11.00;98.10;;;;;;5021511;28;20053;-73
2023/05/06 02:20:21;;;;;;;10.82;5.28;;;10.90;98.20;;;;;;5022297;28;20160;-72
2023/05/06 02:22:47;;;;;;;10.68;5.50;;;10.90;98.20;;;;;;5023620;28;20486;-73
2023/05/06 02:25:13;;;;;;;10.82;6.35;;;10.90;98.40;;;;;;5023848;28;20432;-73
2023/05/06 02:27:38;;;;;;;9.80;5.35;;;10.80;98.40;;;;;;5017349;28;20041;-73
2023/05/06 02:30:05;;;;;;;9.15;6.40;;;10.80;98.60;;;;;;5016427;28;20483;-73
2023/05/06 02:32:31;;;;;;;7.82;5.18;;;10.80;98.80;;;;;;5015483;28;20021;-72
2023/05/06 02:34:56;;;;;;;9.48;5.72;;;10.80;98.90;;;;;;5020683;28;20520;-72
2023/05/06 02:37:22;;;;;;;8.57;5.55;;;10.80;99.00;;;;;;5025490;28;20449;-72
2023/05/06 02:39:48;;;;;;;9.00;5.43;;;10.80;99.00;;;;;;5024670;28;20499;-71
2023/05/06 02:42:17;;;;;;;7.53;5.05;;;10.80;99.10;;;;;;5020661;28;20080;-71
2023/05/06 02:44:43;;;;;;;11.48;6.25;;;10.70;99.30;;;;;;5021094;28;20128;-71
2023/05/06 02:47:08;;;;;;;11.57;6.22;;;10.70;99.40;;;;;;5018027;28;20109;-72
2023/05/06 02:49:34;;;;;;;9.25;5.25;;;10.70;99.40;;;;;;5012028;28;20056;-71
2023/05/06 02:52:00;;;;;;;10.05;6.03;;;10.70;99.50;;;;;;5030953;28;20033;-72
2023/05/06 02:54:26;;;;;;;11.32;6.95;;;10.70;99.50;;;;;;5019651;28;20037;-71
2023/05/06 02:56:52;;;;;;;7.18;5.30;;;10.60;99.60;;;;;;5012909;28;20030;-70
2023/05/06 02:59:17;;;;;;;10.13;5.40;;;10.60;99.70;;;;;;5016652;28;20056;-70
2023/05/06 03:01:43;;;;;;;9.85;5.15;;;10.60;99.80;;;;;;5017518;28;20090;-70
2023/05/06 03:04:08;;;;;;;9.30;6.03;;;10.60;99.90;;;;;;5013555;28;20033;-70
2023/05/06 03:06:34;;;;;;;10.90;6.32;;;10.50;99.90;;;;;;5012960;28;20469;-71
2023/05/06 03:09:00;;;;;;;9.43;6.18;;;10.50;99.90;;;;;;5025085;28;20034;-70
2023/05/06 03:11:25;;;;;;;9.57;5.88;;;10.50;99.90;;;;;;5032432;28;20088;-70
2023/05/06 03:13:51;;;;;;;9.32;5.65;;;10.50;99.90;;;;;;5024010;28;20132;-71
2023/05/06 03:16:16;;;;;;;8.85;5.68;;;10.40;99.90;;;;;;5028633;28;20393;-71
2023/05/06 03:18:42;;;;;;;10.63;6.07;;;10.40;99.90;;;;;;5025884;28;20172;-71
2023/05/06 03:21:07;;;;;;;11.15;5.90;;;10.40;99.90;;;;;;5012161;28;20504;-71
2023/05/06 03:23:33;;;;;;;12.00;6.50;;;10.40;99.90;;;;;;5013765;28;20037;-71
2023/05/06 03:25:59;;;;;;;10.80;5.68;;;10.40;99.90;;;;;;5017742;28;20085;-71
2023/05/06 03:28:24;;;;;;;13.30;5.70;;;10.40;99.90;;;;;;5030432;28;20090;-71
2023/05/06 03:30:50;;;;;;;7.90;5.35;;;10.40;99.90;;;;;;5029218;28;20108;-70
2023/05/06 03:33:15;;;;;;;9.73;5.72;;;10.40;99.90;;;;;;5023166;28;20044;-71
2023/05/06 03:35:41;;;;;;;8.98;6.03;;;10.40;99.90;;;;;;5027929;28;20497;-71
2023/05/06 03:38:06;;;;;;;12.20;6.45;;;10.30;99.90;;;;;;5013120;28;20049;-70
2023/05/06 03:40:32;;;;;;;15.38;5.90;;;10.30;99.90;;;;;;5012038;28;20025;-71
2023/05/06 03:42:58;;;;;;;10.05;5.82;;;10.30;99.90;;;;;;5014079;28;20029;-70
2023/05/06 03:45:24;;;;;;;11.57;6.30;;;10.30;99.90;;;;;;5015756;28;20030;-71
2023/05/06 03:47:49;;;;;;;11.52;6.13;;;10.30;99.90;;;;;;5013809;28;20032;-71
2023/05/06 03:50:15;;;;;;;8.32;6.00;;;10.30;99.90;;;;;;5012011;28;20065;-70
2023/05/06 03:52:40;;;;;;;8.68;5.57;;;10.30;99.90;;;;;;5016797;28;20029;-71
2023/05/06 03:55:06;;;;;;;9.98;6.18;;;10.30;99.90;;;;;;5012095;28;20563;-71
2023/05/06 03:57:32;;;;;;;9.65;5.28;;;10.30;99.90;;;;;;5014276;28;20677;-71
2023/05/06 03:59:57;;;;;;;8.77;5.53;;;10.30;99.90;;;;;;5029988;28;20036;-71
2023/05/06 04:02:23;;;;;;;11.77;5.97;;;10.20;99.90;;;;;;5017178;28;20030;-73
2023/05/06 04:04:49;;;;;;;9.77;6.25;;;10.20;99.90;;;;;;5027263;28;20121;-72
2023/05/06 04:07:14;;;;;;;9.57;5.63;;;10.20;99.90;;;;;;5029086;28;20030;-72
2023/05/06 04:09:40;;;;;;;8.45;6.18;;;10.20;99.90;;;;;;5012541;28;20026;-72
2023/05/06 04:12:06;;;;;;;8.13;6.28;;;10.10;99.90;;;;;;5021042;28;20429;-71
2023/05/06 04:14:32;;;;;;;11.68;6.22;;;10.10;99.90;;;;;;5015464;28;20520;-71
2023/05/06 04:16:57;;;;;;;9.25;5.97;;;10.10;99.90;;;;;;5018694;28;20037;-71
2023/05/06 04:19:23;;;;;;;8.60;5.57;;;10.10;99.90;;;;;;5011913;28;20036;-71
2023/05/06 04:21:48;;;;;;;11.07;6.03;;;10.10;99.90;;;;;;5029560;28;20034;-71
2023/05/06 04:24:14;;;;;;;10.85;6.30;;;10.10;99.90;;;;;;5025972;28;20022;-71
2023/05/06 04:26:40;;;;;;;9.50;6.18;;;10.10;99.90;;;;;;5017978;28;20034;-71
2023/05/06 04:29:07;;;;;;;10.05;5.93;;;10.10;99.90;;;;;;5020228;28;20026;-72
2023/05/06 04:31:33;;;;;;;8.95;5.90;;;10.10;99.90;;;;;;5023090;28;20030;-71
2023/05/06 04:33:59;;;;;;;10.43;6.95;;;10.10;99.90;;;;;;5019323;28;20120;-70
2023/05/06 04:36:25;;;;;;;7.30;4.97;;;10.20;99.90;;;;;;5040858;28;20556;-71
2023/05/06 04:38:52;;;;;;;9.15;6.35;;;10.20;99.90;;;;;;5020267;28;20088;-71
2023/05/06 04:41:18;;;;;;;9.25;5.63;;;10.10;99.90;;;;;;5020023;28;20026;-71
2023/05/06 04:43:43;;;;;;;9.90;6.20;;;10.10;99.90;;;;;;5011461;28;20032;-72
2023/05/06 04:46:09;;;;;;;9.20;6.63;;;10.10;99.90;;;;;;5012606;28;20566;-71
2023/05/06 04:48:35;;;;;;;12.35;6.45;;;10.20;99.90;;;;;;5013008;28;20656;-71
2023/05/06 04:51:04;;;;;;;10.82;6.55;;;10.10;99.90;;;;;;5017338;28;20088;-71
2023/05/06 04:53:30;;;;;;;9.98;6.10;;;10.10;99.90;;;;;;5011661;28;20523;-71
2023/05/06 04:55:55;;;;;;;8.93;6.20;;;10.10;99.90;;;;;;5011952;28;20057;-72
2023/05/06 04:58:21;;;;;;;10.60;6.28;;;10.10;99.90;;;;;;5019636;28;20053;-71
2023/05/06 05:00:46;;;;;;;8.70;5.55;;;10.10;99.90;;;;;;5011677;28;20084;-71
2023/05/06 05:03:12;;;;;;;9.48;6.00;;;10.10;99.90;;;;;;5023123;28;20033;-72
2023/05/06 05:05:38;;;;;;;8.07;5.72;;;10.10;99.90;;;;;;5011450;28;20041;-72
2023/05/06 05:08:04;;;;;;;8.98;6.07;;;10.10;99.90;;;;;;5017898;28;20038;-71
2023/05/06 05:10:29;;;;;;;7.10;5.40;;;10.10;99.90;;;;;;5014111;28;20083;-71
2023/05/06 05:12:55;;;;;;;10.75;6.22;;;10.10;99.90;;;;;;5016011;28;20025;-71
2023/05/06 05:15:20;;;;;;;9.63;5.78;;;10.10;99.90;;;;;;5026768;28;20040;-71
2023/05/06 05:17:46;;;;;;;8.05;5.57;;;10.10;99.90;;;;;;5034573;28;20037;-72
2023/05/06 05:20:12;;;;;;;8.95;5.70;;;10.10;99.90;;;;;;5016589;28;20112;-72
2023/05/06 05:22:38;;;;;;;8.10;5.82;;;10.10;99.90;;;;;;5014786;28;20018;-72
2023/05/06 05:25:03;;;;;;;8.65;5.80;;;10.10;99.90;;;;;;5023421;28;20030;-72
2023/05/06 05:27:29;;;;;;;9.05;5.68;;;10.10;99.90;;;;;;5019830;28;20234;-71
2023/05/06 05:29:55;;;;;;;8.48;6.05;;;10.10;99.90;;;;;;5019453;28;20535;-72
2023/05/06 05:32:21;;;;;;;10.27;6.20;;;10.00;99.90;;;;;;5016654;28;20037;-72
2023/05/06 05:34:46;;;;;;;9.48;5.65;;;10.00;99.90;;;;;;5023116;28;20493;-73
2023/05/06 05:37:12;;;;;;;7.65;5.82;;;10.00;99.90;;;;;;5015443;28;20209;-71
2023/05/06 05:39:38;;;;;;;12.23;5.85;;;10.00;99.90;;;;;;5010656;28;20037;-73
2023/05/06 05:42:03;;;;;;;8.77;5.78;;;10.00;99.90;;;;;;5016573;28;20032;-73
2023/05/06 05:44:29;;;;;;;8.45;5.47;;;10.00;99.90;;;;;;5016570;28;20618;-72
2023/05/06 05:46:55;;;;;;;10.07;6.10;;;10.00;99.90;;;;;;5015398;28;20481;-72
2023/05/06 05:49:20;;;;;;;9.25;5.85;;;10.00;99.90;;;;;;5013869;28;20025;-72
2023/05/06 05:51:46;;;;;;;9.73;6.70;;;10.00;99.90;;;;;;5015670;28;20525;-72
2023/05/06 05:54:13;;;;;;;9.57;6.05;;;10.00;99.90;;;;;;5015263;28;20041;-72
2023/05/06 05:56:38;;;;;;;10.20;5.28;;;10.10;99.90;;;;;;5014817;28;20427;-72
2023/05/06 05:59:04;;;;;;;11.65;6.28;;;10.10;99.90;;;;;;5013873;28;20030;-72
2023/05/06 06:01:30;;;;;;;9.15;5.32;;;10.10;99.90;;;;;;5012661;28;20477;-70
2023/05/06 06:03:56;;;;;;;12.05;6.15;;;10.20;99.90;;;;;;5025453;28;20033;-73
2023/05/06 06:06:23;;;;;;;10.43;6.32;;;10.10;99.90;;;;;;5025474;28;20103;-72
2023/05/06 06:08:48;;;;;;;8.70;5.70;;;10.10;99.90;;;;;;5013905;28;20041;-74
2023/05/06 06:11:14;;;;;;;8.38;6.00;;;10.10;99.90;;;;;;5014784;28;20052;-75
2023/05/06 06:13:40;;;;;;;9.02;6.45;;;10.10;99.90;;;;;;5013725;28;20034;-76
2023/05/06 06:16:05;;;;;;;11.48;7.18;;;10.10;99.90;;;;;;5014926;28;20065;-75
2023/05/06 06:18:31;;;;;;;10.57;6.03;;;10.10;99.90;;;;;;5012738;28;20049;-76
2023/05/06 06:20:57;;;;;;;9.88;5.95;;;10.10;99.90;;;;;;5013666;28;20080;-75
2023/05/06 06:23:23;;;;;;;11.00;5.82;;;10.10;99.90;;;;;;5013192;28;20077;-75
2023/05/06 06:25:49;;;;;;;8.23;5.03;;;10.10;99.90;;;;;;5015364;28;20034;-75
2023/05/06 06:28:14;;;;;;;8.40;5.65;;;10.10;99.90;;;;;;5014179;28;20355;-75
2023/05/06 06:30:40;;;;;;;8.68;5.72;;;10.00;99.90;;;;;;5013937;28;20029;-75
2023/05/06 06:33:06;;;;;;;10.13;5.55;;;10.00;99.90;;;;;;5023064;28;20071;-75
2023/05/06 06:35:31;;;;;;;7.35;5.53;;;10.00;99.90;;;;;;5011578;28;20493;-75
2023/05/06 06:37:57;;;;;;;9.55;6.57;;;10.00;99.90;;;;;;5015026;28;20434;-75
2023/05/06 06:40:23;;;;;;;10.73;6.28;;;10.00;99.90;;;;;;5011883;28;20654;-75
2023/05/06 06:42:48;;;;;;;8.82;5.55;;;10.00;99.90;;;;;;5014278;28;20029;-74
2023/05/06 06:45:14;;;;;;;7.82;5.13;;;10.00;99.90;;;;;;5014052;28;20025;-74
2023/05/06 06:47:40;;;;;;;13.20;5.60;;;10.00;99.90;;;;;;5014166;28;20030;-75
2023/05/06 06:50:06;;;;;;;10.75;6.13;;;10.00;99.90;;;;;;5018367;28;20384;-74
2023/05/06 06:52:32;;;;;;;9.80;5.30;;;10.00;99.90;;;;;;5011209;28;20505;-74
2023/05/06 06:54:58;;;;;;;9.32;6.28;;;10.00;99.90;;;;;;5012509;28;20052;-75
2023/05/06 06:57:24;;;;;;;7.57;5.43;;;10.00;99.90;;;;;;5012999;28;20052;-74
2023/05/06 06:59:52;;;;;;;9.95;5.82;;;10.00;99.90;;;;;;5012365;28;20505;-73
2023/05/06 07:02:21;;;;;;;8.20;6.00;;;10.00;99.90;;;;;;5011147;28;20084;-73
2023/05/06 07:04:46;;;;;;;8.32;6.53;;;10.00;99.90;;;;;;5013015;28;20064;-73
2023/05/06 07:07:12;;;;;;;10.90;6.38;;;10.00;99.90;;;;;;5013981;28;20108;-74
2023/05/06 07:09:38;;;;;;;9.15;5.93;;;10.00;99.90;;;;;;5010798;28;20121;-74
2023/05/06 07:12:05;;;;;;;11.45;6.05;;;10.00;99.90;;;;;;5011122;28;20026;-74
2023/05/06 07:14:31;;;;;;;9.98;6.53;;;10.00;99.90;;;;;;5014147;28;20607;-74
2023/05/06 07:16:56;;;;;;;9.38;7.03;;;10.00;99.90;;;;;;5012765;28;20037;-74
2023/05/06 07:19:22;;;;;;;9.45;7.10;;;10.10;99.90;;;;;;5012896;28;20029;-74
2023/05/06 07:21:48;;;;;;;8.50;6.13;;;10.10;99.90;;;;;;5015563;28;20037;-74
2023/05/06 07:24:13;;;;;;;9.55;6.55;;;10.10;99.90;;;;;;5012896;28;20468;-74
2023/05/06 07:26:39;;;;;;;9.98;6.13;;;10.10;99.90;;;;;;5011730;28;20034;-74
2023/05/06 07:29:05;;;;;;;8.80;6.32;;;10.10;99.90;;;;;;5012687;28;20033;-74
2023/05/06 07:31:34;;;;;;;8.90;6.72;;;10.10;99.90;;;;;;5013107;28;20099;-74
2023/05/06 07:33:59;;;;;;;8.90;6.20;;;10.10;99.90;;;;;;5013370;28;20037;-74
2023/05/06 07:36:28;;;;;;;11.55;6.40;;;10.10;99.90;;;;;;5011071;28;20033;-73
2023/05/06 07:38:54;;;;;;;10.23;6.20;;;10.10;99.90;;;;;;5010274;28;20508;-74
2023/05/06 07:41:19;;;;;;;9.57;6.53;;;10.10;99.90;;;;;;5012042;28;20025;-74
2023/05/06 07:43:45;;;;;;;8.57;6.47;;;10.10;99.90;;;;;;5013218;28;20037;-73
2023/05/06 07:46:11;;;;;;;10.32;7.55;;;10.20;99.90;;;;;;5013388;28;20029;-75
2023/05/06 07:48:37;;;;;;;8.10;6.50;;;10.20;99.90;;;;;;5011900;28;20132;-75
2023/05/06 07:51:02;;;;;;;9.95;6.32;;;10.10;99.90;;;;;;5012735;28;20033;-73
2023/05/06 07:53:28;;;;;;;9.07;6.32;;;10.10;99.90;;;;;;5031584;28;20500;-75
2023/05/06 07:56:00;;;;;;;9.18;6.97;;;10.10;99.90;;;;;;5016690;28;20025;-73
2023/05/06 07:58:29;;;;;;;9.45;7.68;;;10.10;99.90;;;;;;5014066;28;20041;-76
2023/05/06 08:00:55;;;;;;;9.27;6.53;;;10.10;99.90;;;;;;5012188;28;20058;-74
2023/05/06 08:03:21;;;;;;;12.00;7.30;;;10.10;99.90;;;;;;5012774;28;20116;-74
2023/05/06 08:05:48;;;;;;;9.52;6.97;;;10.10;99.90;;;;;;5011482;28;20045;-75
2023/05/06 08:08:13;;;;;;;9.65;6.78;;;10.20;99.90;;;;;;5015340;28;20683;-74
2023/05/06 08:10:39;;;;;;;9.23;6.88;;;10.20;99.90;;;;;;5015156;28;20053;-74
2023/05/06 08:13:05;;;;;;;9.55;7.20;;;10.20;99.90;;;;;;5014633;28;20029;-74
2023/05/06 08:15:31;;;;;;;13.40;7.82;;;10.20;99.90;;;;;;5015066;28;20030;-74
2023/05/06 08:17:56;;;;;;;9.60;7.40;;;10.30;99.90;;;;;;5010451;28;20045;-73
2023/05/06 08:20:22;;;;;;;12.95;7.75;;;10.30;99.90;;;;;;5010702;28;20099;-74
2023/05/06 08:22:48;;;;;;;10.98;8.27;;;10.30;99.90;;;;;;5010633;28;20042;-74
2023/05/06 08:25:13;;;;;;;9.07;7.32;;;10.30;99.90;;;;;;5010350;28;20025;-74
2023/05/06 08:27:39;;;;;;;10.63;8.68;;;10.30;99.90;;;;;;5011769;28;20057;-74
2023/05/06 08:30:05;;;;;;;9.60;7.22;;;10.30;99.90;;;;;;5021849;28;20132;-74
2023/05/06 08:32:31;;;;;;;10.68;8.73;;;10.30;99.90;;;;;;5009457;28;20026;-74
2023/05/06 08:34:58;;;;;;;10.60;8.50;;;10.30;99.90;;;;;;5010557;28;20072;-75
2023/05/06 08:37:24;;;;;;;12.55;8.20;;;10.30;99.90;;;;;;5011247;28;20568;-73
2023/05/06 08:39:50;;;;;;;11.48;8.32;;;10.30;99.90;;;;;;5015056;28;20037;-74
2023/05/06 08:42:16;;;;;;;16.83;8.55;;;10.30;99.90;;;;;;5020667;28;20106;-73
2023/05/06 08:44:42;;;;;;;12.80;8.43;;;10.30;99.90;;;;;;5015178;28;20428;-74
2023/05/06 08:47:08;;;;;;;10.32;8.30;;;10.30;99.90;;;;;;5019400;28;20033;-75
2023/05/06 08:49:34;;;;;;;11.80;8.07;;;10.30;99.90;;;;;;5013921;28;20029;-74
2023/05/06 08:52:04;;;;;;;10.43;7.82;;;10.40;99.90;;;;;;5013116;28;20163;-75
2023/05/06 08:54:34;;;;;;;10.45;8.02;;;10.40;99.90;;;;;;5013697;28;20041;-76
2023/05/06 08:57:09;;;;;;;11.90;8.50;;;10.40;99.90;;;;;;5016276;28;20026;-75
2023/05/06 08:59:35;;;;;;;9.45;7.65;;;10.40;99.90;;;;;;5024155;28;20025;-76
2023/05/06 09:02:02;;;;;;;10.77;7.55;;;10.40;99.90;;;;;;5024609;28;20025;-76
2023/05/06 09:04:28;;;;;;;11.82;8.70;;;10.50;99.90;;;;;;5033384;28;20476;-75
2023/05/06 09:06:54;;;;;;;9.85;8.27;;;10.50;99.90;;;;;;5032759;28;20029;-75
2023/05/06 09:09:20;;;;;;;10.40;7.38;;;10.50;99.90;;;;;;5015958;28;20113;-75
2023/05/06 09:11:53;;;;;;;11.85;9.02;;;10.60;99.90;;;;;;5023342;28;20113;-76
2023/05/06 09:14:20;;;;;;;12.68;8.82;;;10.50;99.90;;;;;;5023535;28;20072;-76
2023/05/06 09:16:48;;;;;;;16.17;9.82;;;10.60;99.90;;;;;;5017181;28;20076;-76
2023/05/06 09:19:15;;;;;;;10.80;7.85;;;10.60;99.90;;;;;;5014140;28;20065;-75
2023/05/06 09:21:43;;;;;;;11.18;8.23;;;10.60;99.90;;;;;;5018345;28;20018;-76
2023/05/06 09:24:10;;;;;;;11.98;7.57;;;10.60;99.90;;;;;;5034401;28;20030;-75
2023/05/06 09:26:37;;;;;;;9.77;7.70;;;10.70;99.90;;;;;;5019332;28;20044;-76
2023/05/06 09:29:05;;;;;;;9.50;7.30;;;10.70;99.90;;;;;;5018518;28;20132;-76
2023/05/06 09:31:31;;;;;;;8.32;6.82;;;10.70;99.90;;;;;;5031657;28;20037;-75
2023/05/06 09:33:58;;;;;;;7.30;6.22;;;10.70;99.90;;;;;;5021951;28;20033;-76
2023/05/06 09:36:26;;;;;;;8.23;6.47;;;10.80;99.90;;;;;;5033961;28;20022;-76
2023/05/06 09:38:55;;;;;;;8.70;6.05;;;10.80;99.90;;;;;;5018705;28;20085;-75
2023/05/06 09:41:26;;;;;;;8.73;6.65;;;10.80;99.90;;;;;;5024268;28;20080;-76
2023/05/06 09:43:53;;;;;;;9.27;6.53;;;10.90;99.90;;;;;;5013694;28;20028;-76
2023/05/06 09:46:23;;;;;;;8.95;6.45;;;10.90;99.90;;;;;;5019036;28;20025;-75
2023/05/06 09:48:51;;;;;;;6.68;5.70;;;10.90;99.90;;;;;;5026454;28;20037;-76
2023/05/06 09:51:17;;;;;;;8.27;6.50;;;11.00;99.90;;;;;;5024252;28;20041;-76
2023/05/06 09:53:44;;;;;;;9.65;6.85;;;11.00;99.90;;;;;;5023495;28;20042;-76
2023/05/06 09:56:13;;;;;;;7.75;6.00;;;11.00;99.90;;;;;;5032258;28;20021;-73
2023/05/06 09:58:39;;;;;;;9.95;6.30;;;11.00;99.90;;;;;;5028102;28;20184;-74
2023/05/06 11:38:57;;;;;;;4.57;3.35;;;10.70;99.90;;;;;;5101105;23;20044;-67
2023/05/06 11:41:42;;;;;;;5.65;3.90;;;10.70;99.90;;;;;;4897020;29;20522;-65
2023/05/06 11:44:31;;;;;;;5.13;3.65;;;10.70;99.90;;;;;;4945514;29;20493;-69
